createdAt,value
2022-09-13T00:03:31.452Z,12.28
2022-09-13T00:31:23.477Z,11.87
2022-09-13T00:49:36.073Z,11.78
2022-09-13T00:52:36.132Z,11.73
2022-09-13T01:01:23.351Z,11.58
2022-09-13T01:09:24.783Z,11.65
2022-09-13T01:18:31.976Z,11.58
2022-09-13T01:26:36.507Z,11.47
2022-09-13T01:35:50.531Z,11.49
2022-09-13T02:00:11.495Z,11.21
2022-09-13T02:17:52.050Z,11.16
2022-09-13T02:36:33.356Z,10.98
2022-09-13T03:09:14.267Z,10.56
2022-09-13T03:46:59.008Z,10.31
2022-09-13T04:04:12.249Z,10.29
2022-09-13T04:36:47.137Z,10.83
2022-09-13T04:44:58.497Z,11.13
2022-09-13T04:52:52.167Z,11.35
2022-09-13T04:55:50.163Z,11.45
2022-09-13T04:58:47.779Z,11.63
2022-09-13T05:01:45.664Z,11.76
2022-09-13T05:04:43.458Z,11.84
2022-09-13T05:07:41.044Z,12.10
2022-09-13T05:10:40.293Z,12.33
2022-09-13T05:13:40.265Z,12.39
2022-09-13T05:16:38.118Z,12.52
2022-09-13T05:19:36.162Z,12.59
2022-09-13T05:22:33.728Z,12.73
2022-09-13T05:25:31.404Z,12.90
2022-09-13T05:28:31.427Z,12.91
2022-09-13T05:31:31.797Z,13.13
2022-09-13T05:34:29.694Z,13.18
2022-09-13T05:37:27.507Z,13.39
2022-09-13T05:40:25.077Z,13.62
2022-09-13T05:43:23.360Z,13.72
2022-09-13T05:46:22.920Z,14.07
2022-09-13T05:49:20.941Z,14.13
2022-09-13T05:52:18.647Z,14.22
2022-09-13T05:55:16.467Z,14.34
2022-09-13T05:58:14.311Z,14.42
2022-09-13T06:01:13.573Z,14.61
2022-09-13T06:04:14.597Z,14.73
2022-09-13T06:07:12.907Z,14.97
2022-09-13T06:10:12.486Z,15.27
2022-09-13T06:13:10.508Z,15.37
2022-09-13T06:16:09.438Z,15.67
2022-09-13T06:19:07.379Z,15.97
2022-09-13T06:22:06.006Z,15.92
2022-09-13T06:25:04.085Z,16.23
2022-09-13T06:28:03.364Z,16.33
2022-09-13T07:24:02.285Z,17.39
2022-09-13T07:27:00.362Z,17.70
2022-09-13T07:29:58.004Z,18.08
2022-09-13T07:32:55.467Z,18.21
2022-09-13T07:35:56.771Z,18.32
2022-09-13T07:38:54.808Z,18.50
2022-09-13T07:41:54.155Z,18.26
2022-09-13T07:44:52.386Z,18.54
2022-09-13T07:47:53.749Z,18.83
2022-09-13T07:50:57.753Z,18.59
2022-09-13T07:53:57.829Z,19.10
2022-09-13T07:56:58.191Z,19.12
2022-09-13T07:59:55.548Z,19.29
2022-09-13T08:02:53.265Z,18.44
2022-09-13T08:05:50.913Z,18.41
2022-09-13T08:08:49.070Z,18.69
2022-09-13T08:11:47.499Z,19.13
2022-09-13T10:01:59.647Z,19.74
2022-09-13T10:04:30.350Z,20.11
2022-09-13T10:07:19.241Z,20.32
2022-09-13T10:10:03.392Z,20.46
2022-09-13T10:12:41.026Z,20.47
2022-09-13T10:15:18.479Z,20.94
2022-09-13T10:21:01.067Z,21.28
2022-09-13T10:23:30.421Z,21.58
2022-09-13T10:26:12.502Z,21.49
2022-09-13T10:28:48.345Z,21.49
2022-09-13T10:31:19.762Z,21.19
2022-09-13T10:33:59.184Z,21.56
2022-09-13T10:36:51.504Z,21.25
2022-09-13T10:39:23.768Z,21.23
2022-09-13T10:41:57.946Z,21.54
2022-09-13T10:44:34.054Z,22.19
2022-09-13T10:47:07.558Z,23.10
2022-09-13T10:49:42.360Z,22.96
2022-09-13T10:52:31.045Z,23.45
2022-09-13T10:55:30.640Z,23.19
2022-09-13T10:58:16.072Z,22.99
2022-09-13T11:01:02.340Z,22.52
2022-09-13T11:03:53.361Z,22.97
2022-09-13T11:06:31.774Z,23.14
2022-09-13T11:09:11.338Z,22.85
2022-09-13T11:11:49.832Z,23.28
2022-09-13T11:14:33.417Z,23.45
2022-09-13T11:17:17.083Z,23.68
2022-09-13T11:20:06.471Z,23.51
2022-09-13T11:23:02.460Z,23.63
2022-09-13T11:25:52.754Z,23.32
2022-09-13T11:28:34.677Z,23.71
2022-09-13T11:31:19.857Z,23.02
2022-09-13T11:33:56.627Z,23.30
2022-09-13T11:36:52.150Z,23.08
2022-09-13T11:39:29.181Z,22.18
2022-09-13T11:42:06.559Z,22.79
2022-09-13T11:44:54.221Z,21.87
2022-09-13T11:47:35.005Z,21.36
2022-09-13T11:50:33.447Z,22.52
2022-09-13T11:53:34.478Z,22.58
2022-09-13T11:56:08.479Z,22.73
2022-09-13T11:58:45.895Z,22.38
2022-09-13T12:01:21.586Z,22.39
2022-09-13T12:03:57.616Z,22.52
2022-09-13T12:06:31.307Z,22.39
2022-09-13T12:09:07.110Z,22.44
2022-09-13T12:11:40.224Z,22.25
2022-09-13T12:14:17.103Z,21.08
2022-09-13T12:16:49.127Z,21.33
2022-09-13T12:19:23.226Z,21.58
2022-09-13T12:21:54.501Z,21.23
2022-09-13T12:24:31.301Z,21.47
2022-09-13T12:27:05.854Z,21.43
2022-09-13T12:29:41.592Z,21.22
2022-09-13T12:32:11.927Z,21.44
2022-09-13T12:34:48.304Z,21.46
2022-09-13T12:37:38.719Z,21.16
2022-09-13T12:40:35.243Z,21.31
2022-09-13T12:43:18.158Z,21.21
2022-09-13T12:46:20.000Z,20.84
2022-09-13T12:49:18.909Z,21.09
2022-09-13T12:52:19.311Z,20.96
2022-09-13T12:55:46.012Z,20.93
2022-09-13T12:58:47.151Z,21.13
2022-09-13T13:01:21.017Z,20.88
2022-09-13T13:03:55.859Z,20.74
2022-09-13T13:06:29.014Z,20.82
2022-09-13T13:09:00.430Z,20.98
2022-09-13T13:11:41.917Z,20.85
2022-09-13T13:14:39.868Z,20.79
2022-09-13T13:17:46.863Z,20.69
2022-09-13T13:20:34.923Z,20.58
2022-09-13T13:23:15.784Z,20.31
2022-09-13T13:26:01.279Z,20.16
2022-09-13T13:28:54.111Z,20.03
2022-09-13T13:31:41.650Z,20.13
2022-09-13T13:34:42.430Z,20.25
2022-09-13T13:37:33.964Z,20.15
2022-09-13T13:40:26.135Z,20.05
2022-09-13T13:43:17.720Z,20.05
2022-09-13T13:46:20.593Z,19.86
2022-09-13T13:48:49.812Z,19.87
2022-09-13T13:51:23.724Z,19.79
2022-09-13T13:54:02.700Z,19.96
2022-09-13T13:56:47.273Z,19.81
2022-09-13T13:59:26.914Z,20.33
2022-09-13T14:02:01.877Z,20.74
2022-09-13T14:05:09.983Z,21.29
2022-09-13T14:08:25.005Z,22.18
2022-09-13T14:11:00.192Z,21.73
2022-09-13T14:13:43.615Z,21.55
2022-09-13T14:16:31.020Z,21.51
2022-09-13T14:19:25.233Z,21.48
2022-09-13T14:22:17.017Z,21.54
2022-09-13T14:24:49.793Z,21.15
2022-09-13T14:27:21.574Z,20.83
2022-09-13T14:29:53.578Z,20.54
2022-09-13T14:32:25.073Z,20.69
2022-09-13T14:34:59.123Z,20.84
2022-09-13T14:37:32.124Z,20.68
2022-09-13T14:40:17.739Z,20.84
2022-09-13T14:42:49.161Z,20.91
2022-09-13T14:45:21.091Z,21.22
2022-09-13T14:47:58.400Z,20.55
2022-09-13T14:50:32.943Z,20.97
2022-09-13T14:53:05.391Z,20.72
2022-09-13T14:55:40.845Z,20.50
2022-09-13T14:58:16.291Z,20.66
2022-09-13T15:00:53.502Z,20.52
2022-09-13T15:03:24.551Z,20.38
2022-09-13T15:05:56.965Z,20.36
2022-09-13T15:08:47.352Z,20.31
2022-09-13T15:11:29.165Z,20.71
2022-09-13T15:14:22.056Z,20.51
2022-09-13T15:16:54.407Z,20.56
2022-09-13T15:19:37.371Z,20.52
2022-09-13T15:22:23.575Z,20.70
2022-09-13T15:24:54.913Z,20.52
2022-09-13T15:27:28.461Z,20.38
2022-09-13T15:30:00.281Z,20.65
2022-09-13T15:32:36.150Z,20.52
2022-09-13T15:35:05.425Z,20.24
2022-09-13T15:37:39.238Z,20.12
2022-09-13T15:40:20.112Z,20.12
2022-09-13T15:42:54.604Z,19.98
2022-09-13T15:45:24.773Z,20.03
2022-09-13T15:47:54.662Z,19.82
2022-09-13T15:50:27.066Z,19.99
2022-09-13T15:52:56.715Z,19.70
2022-09-13T15:55:26.606Z,19.68
2022-09-13T15:57:57.329Z,19.81
2022-09-13T16:00:28.808Z,19.62
2022-09-13T16:03:00.130Z,19.64
2022-09-13T16:05:29.352Z,19.70
2022-09-13T16:07:58.919Z,19.93
2022-09-13T16:10:29.100Z,19.90
2022-09-13T16:12:59.816Z,20.13
2022-09-13T16:15:29.451Z,19.77
2022-09-13T16:17:58.471Z,19.49
2022-09-13T16:20:27.730Z,19.50
2022-09-13T16:22:57.188Z,19.43
2022-09-13T16:25:26.479Z,19.59
2022-09-13T16:27:55.613Z,19.73
2022-09-13T16:30:27.958Z,19.88
2022-09-13T16:32:57.915Z,19.87
2022-09-13T16:35:30.346Z,19.74
2022-09-13T16:37:59.443Z,19.80
2022-09-13T16:40:28.548Z,19.92
2022-09-13T16:42:57.830Z,19.88
2022-09-13T16:45:30.851Z,19.82
2022-09-13T16:48:00.391Z,19.61
2022-09-13T16:50:33.126Z,19.54
2022-09-13T16:53:03.840Z,19.39
2022-09-13T16:55:33.188Z,19.37
2022-09-13T16:58:02.172Z,19.67
2022-09-13T17:00:32.692Z,19.76
2022-09-13T17:03:02.090Z,19.55
2022-09-13T17:05:31.437Z,19.45
2022-09-13T17:08:00.329Z,19.45
2022-09-13T17:10:29.890Z,19.26
2022-09-13T17:12:58.775Z,19.27
2022-09-13T17:15:27.696Z,19.26
2022-09-13T17:17:58.171Z,19.14
2022-09-13T17:20:27.083Z,19.10
2022-09-13T17:22:56.235Z,18.99
2022-09-13T17:25:25.571Z,18.99
2022-09-13T17:27:55.813Z,18.88
2022-09-13T17:30:25.956Z,18.69
2022-09-13T17:32:55.770Z,18.61
2022-09-13T17:35:26.070Z,18.44
2022-09-13T17:37:55.133Z,18.40
2022-09-13T17:40:24.474Z,18.30
2022-09-13T17:42:53.659Z,18.05
2022-09-13T17:45:24.832Z,18.11
2022-09-13T17:47:55.224Z,18.06
2022-09-13T17:50:25.895Z,18.06
2022-09-13T17:52:55.949Z,17.76
2022-09-13T17:55:26.898Z,17.68
2022-09-13T17:57:56.946Z,17.63
2022-09-13T18:00:26.649Z,17.47
2022-09-13T18:02:55.588Z,17.30
2022-09-13T18:05:26.098Z,17.26
2022-09-13T18:07:55.657Z,17.25
2022-09-13T18:10:45.553Z,17.04
2022-09-13T18:13:13.793Z,16.88
2022-09-13T18:15:42.816Z,16.89
2022-09-13T18:18:12.614Z,16.70
2022-09-13T18:20:47.356Z,16.69
2022-09-13T18:23:16.487Z,16.57
2022-09-13T18:25:45.919Z,16.63
2022-09-13T18:28:15.882Z,16.71
2022-09-13T18:30:53.560Z,16.69
2022-09-13T18:33:26.620Z,16.59
2022-09-13T18:36:01.363Z,16.61
2022-09-13T18:38:36.733Z,16.65
2022-09-13T18:41:08.059Z,16.62
2022-09-13T18:43:39.941Z,16.37
2022-09-13T18:46:11.249Z,16.27
2022-09-13T18:48:42.318Z,16.01
2022-09-13T18:51:17.066Z,15.91
2022-09-13T18:53:47.567Z,15.97
2022-09-13T18:56:18.896Z,15.90
2022-09-13T18:58:48.604Z,16.01
2022-09-13T19:01:20.010Z,16.19
2022-09-13T19:03:54.125Z,16.21
2022-09-13T19:06:26.135Z,16.17
2022-09-13T19:08:57.539Z,16.23
2022-09-13T19:11:45.792Z,15.99
2022-09-13T19:14:21.888Z,15.61
2022-09-13T19:16:51.874Z,15.71
2022-09-13T19:19:22.719Z,15.55
2022-09-13T19:21:53.294Z,15.70
2022-09-13T19:24:23.812Z,15.49
2022-09-13T19:26:54.457Z,15.32
2022-09-13T19:29:25.296Z,15.55
2022-09-13T19:31:56.948Z,15.67
2022-09-13T19:34:28.325Z,15.83
2022-09-13T19:36:59.441Z,15.63
2022-09-13T19:39:31.967Z,15.73
2022-09-13T19:42:02.421Z,15.79
2022-09-13T19:44:34.039Z,15.64
2022-09-13T19:49:53.454Z,15.48
2022-09-13T19:52:24.567Z,15.36
2022-09-13T19:54:56.384Z,15.40
2022-09-13T19:57:26.276Z,15.33
2022-09-13T19:59:55.406Z,15.33
2022-09-13T20:02:24.259Z,15.37
2022-09-13T20:04:53.723Z,15.35
2022-09-13T20:07:24.971Z,15.52
2022-09-13T20:09:54.482Z,15.17
2022-09-13T20:12:23.434Z,15.10
2022-09-13T20:14:53.682Z,15.19
2022-09-13T20:17:23.156Z,15.08
2022-09-13T20:19:52.247Z,15.09
2022-09-13T20:22:21.327Z,15.04
2022-09-13T20:24:51.860Z,14.80
2022-09-13T20:27:20.854Z,14.78
2022-09-13T20:29:49.930Z,14.56
2022-09-13T20:32:19.293Z,14.66
2022-09-13T20:34:50.080Z,14.61
2022-09-13T20:37:19.765Z,14.99
2022-09-13T20:39:50.690Z,14.86
2022-09-13T20:42:20.021Z,14.68
2022-09-13T20:44:49.154Z,14.57
2022-09-13T20:47:18.319Z,14.45
2022-09-13T20:49:47.157Z,14.24
2022-09-13T20:52:16.982Z,14.30
2022-09-13T20:54:46.082Z,14.26
2022-09-13T20:57:16.305Z,14.26
2022-09-13T20:59:45.497Z,14.23
2022-09-13T21:02:14.707Z,14.15
2022-09-13T21:04:43.732Z,14.12
2022-09-13T21:07:31.043Z,14.16
2022-09-13T21:10:00.564Z,14.08
2022-09-13T21:12:32.507Z,14.16
2022-09-13T21:15:01.574Z,13.95
2022-09-13T21:17:30.920Z,13.88
2022-09-13T21:19:59.808Z,13.85
2022-09-13T21:22:29.265Z,13.88
2022-09-13T21:24:58.423Z,13.84
2022-09-13T21:27:27.644Z,13.79
2022-09-13T21:29:57.852Z,13.71
2022-09-13T21:32:27.115Z,13.64
2022-09-13T21:34:56.125Z,13.58
2022-09-13T21:37:25.152Z,13.74
2022-09-13T21:39:54.170Z,13.73
2022-09-13T21:42:23.348Z,13.64
2022-09-13T21:44:52.410Z,13.62
2022-09-13T21:47:22.775Z,13.63
2022-09-13T21:49:51.740Z,13.58
2022-09-13T21:52:20.910Z,13.58
2022-09-13T21:54:50.012Z,13.63
2022-09-13T21:57:18.924Z,13.56
2022-09-13T21:59:47.989Z,13.45
2022-09-13T22:02:17.319Z,13.46
2022-09-13T22:04:47.919Z,13.32
2022-09-13T22:07:17.036Z,13.32
2022-09-13T22:09:46.139Z,13.29
2022-09-13T22:12:15.090Z,13.28
2022-09-13T22:14:44.011Z,13.18
2022-09-13T22:17:13.212Z,13.09
2022-09-13T22:19:42.220Z,13.03
2022-09-13T22:22:12.639Z,13.08
2022-09-13T22:24:41.923Z,12.96
2022-09-13T22:27:10.787Z,13.02
2022-09-13T22:29:40.437Z,12.87
2022-09-13T22:32:09.646Z,12.96
2022-09-13T22:34:38.495Z,13.05
2022-09-13T22:37:07.730Z,12.94
2022-09-13T22:39:38.703Z,12.91
2022-09-13T22:42:09.226Z,13.01
2022-09-13T22:44:38.833Z,12.81
2022-09-13T22:47:08.087Z,12.88
2022-09-13T22:49:37.353Z,13.07
2022-09-13T22:52:06.411Z,13.21
2022-09-13T22:54:35.277Z,13.16
2022-09-13T22:57:06.084Z,13.19
2022-09-13T22:59:35.205Z,13.38
2022-09-13T23:02:04.121Z,13.52
2022-09-13T23:04:32.991Z,13.51
2022-09-13T23:07:02.012Z,13.51
2022-09-13T23:09:31.195Z,13.78
2022-09-13T23:12:00.356Z,13.94
2022-09-13T23:14:30.808Z,13.96
2022-09-13T23:16:59.826Z,14.07
2022-09-13T23:19:29.706Z,14.07
2022-09-13T23:21:58.714Z,14.25
2022-09-13T23:24:27.503Z,14.23
2022-09-13T23:26:57.370Z,14.25
2022-09-13T23:29:26.450Z,14.26
2022-09-13T23:31:56.850Z,14.16
2022-09-13T23:34:25.987Z,14.12
2022-09-13T23:36:55.205Z,14.31
2022-09-13T23:39:24.094Z,14.43
2022-09-13T23:41:53.157Z,14.37
2022-09-13T23:44:22.469Z,14.51
2022-09-13T23:46:51.531Z,14.37
2022-09-13T23:49:22.091Z,14.39
2022-09-13T23:51:51.176Z,14.51
2022-09-13T23:54:20.085Z,14.51
2022-09-13T23:56:49.062Z,14.61
2022-09-13T23:59:18.099Z,14.64
